Time;durP1;ratioP1;P1;durP2;ratioP2;P2;SDS_P1;SDS_P2;PMS_P1;PMS_P2;Temp;Humidity;BMP_temperature;BMP_pressure;BME280_temperature;BME280_humidity;BME280_pressure;Samples;Min_cycle;Max_cycle;Signal;HPM_P1;HPM_P2
2021/03/01 00:02:10;;;;;;;;;;;;;;;3.60;69.81;97567.80;1703627;83;20216;-64
2021/03/01 00:04:38;;;;;;;;;;;;;;;3.56;70.00;97563.62;1693609;83;21219;-63
2021/03/01 00:07:05;;;;;;;;;;;;;;;3.56;70.16;97570.48;1708532;83;20508;-60
2021/03/01 00:09:33;;;;;;;;;;;;;;;3.54;70.14;97573.09;1722859;83;20219;-61
2021/03/01 00:12:00;;;;;;;;;;;;;;;3.56;70.17;97568.75;1711441;83;20261;-60
2021/03/01 00:14:28;;;;;;;;;;;;;;;3.57;70.12;97574.30;1719917;82;20228;-60
2021/03/01 00:16:56;;;;;;;;;;;;;;;3.55;70.06;97563.66;1726205;82;22848;-60
2021/03/01 00:19:24;;;;;;;;;;;;;;;3.54;70.07;97573.09;1721019;82;20213;-60
2021/03/01 00:21:51;;;;;;;;;;;;;;;3.56;70.23;97558.94;1725691;83;20242;-60
2021/03/01 00:24:18;;;;;;;;;;;;;;;3.56;70.16;97564.90;1721092;83;20518;-62
2021/03/01 00:26:45;;;;;;;;;;;;;;;3.54;70.14;97568.41;1716893;83;20318;-61
2021/03/01 00:29:12;;;;;;;;;;;;;;;3.53;70.17;97567.55;1716915;82;21228;-61
2021/03/01 00:31:44;;;;;;;;;;;;;;;3.53;70.30;97564.14;1717698;82;20558;-61
2021/03/01 00:34:12;;;;;;;;;;;;;;;3.47;70.46;97558.72;1716596;83;20312;-62
2021/03/01 00:36:39;;;;;;;;;;;;;;;3.42;70.59;97560.15;1718698;83;20217;-61
2021/03/01 00:39:09;;;;;;;;;;;;;;;3.43;70.85;97568.23;1711859;83;21639;-61
2021/03/01 00:41:37;;;;;;;;;;;;;;;3.42;70.95;97556.30;1715509;83;22279;-60
2021/03/01 00:44:05;;;;;;;;;;;;;;;3.42;71.01;97560.15;1726573;82;20507;-61
2021/03/01 00:46:33;;;;;;;;;;;;;;;3.43;70.96;97558.41;1733099;81;20229;-62
2021/03/01 00:49:01;;;;;;;;;;;;;;;3.41;71.01;97558.45;1720515;83;20219;-62
2021/03/01 00:51:28;;;;;;;;;;;;;;;3.41;71.00;97557.17;1715290;83;20508;-61
2021/03/01 00:53:56;;;;;;;;;;;;;;;3.47;70.93;97556.16;1715487;83;20586;-61
2021/03/01 00:56:24;;;;;;;;;;;;;;;3.50;70.94;97554.37;1716159;83;20222;-62
2021/03/01 00:58:51;;;;;;;;;;;;;;;3.47;71.03;97560.00;1717789;82;20225;-61
2021/03/01 01:01:18;;;;;;;;;;;;;;;3.43;70.98;97560.53;1713108;82;21231;-62
2021/03/01 01:03:46;;;;;;;;;;;;;;;3.39;71.12;97552.53;1717000;82;20536;-62
2021/03/01 01:06:16;;;;;;;;;;;;;;;3.37;71.17;97565.84;1728417;82;21467;-61
2021/03/01 01:08:43;;;;;;;;;;;;;;;3.34;71.24;97562.07;1726811;82;20229;-62
2021/03/01 01:11:10;;;;;;;;;;;;;;;3.35;71.40;97571.44;1721111;82;20218;-60
2021/03/01 01:13:37;;;;;;;;;;;;;;;3.43;71.31;97572.52;1721092;82;20494;-61
2021/03/01 01:16:05;;;;;;;;;;;;;;;3.46;71.17;97575.02;1721734;81;21716;-60
2021/03/01 01:18:32;;;;;;;;;;;;;;;3.45;70.98;97574.19;1728586;81;21361;-61
2021/03/01 01:20:59;;;;;;;;;;;;;;;3.45;70.81;97582.30;1740497;82;20214;-61
2021/03/01 01:23:26;;;;;;;;;;;;;;;3.44;70.71;97582.75;1704313;84;20223;-60
2021/03/01 01:25:54;;;;;;;;;;;;;;;3.46;70.62;97584.00;1690302;82;20218;-60
2021/03/01 01:28:21;;;;;;;;;;;;;;;3.45;70.49;97578.45;1732419;81;21715;-64
2021/03/01 01:30:49;;;;;;;;;;;;;;;3.40;70.46;97587.55;1736131;81;21338;-61
2021/03/01 01:33:17;;;;;;;;;;;;;;;3.37;70.55;97586.38;1723036;81;21200;-60
2021/03/01 01:35:45;;;;;;;;;;;;;;;3.39;70.69;97584.59;1735615;81;20218;-59
2021/03/01 01:38:12;;;;;;;;;;;;;;;3.39;70.77;97582.45;1719465;81;20288;-60
2021/03/01 01:40:39;;;;;;;;;;;;;;;3.37;70.85;97594.06;1729799;81;20482;-60
2021/03/01 01:43:07;;;;;;;;;;;;;;;3.40;70.94;97591.84;1728906;81;23703;-61
2021/03/01 01:45:34;;;;;;;;;;;;;;;3.41;70.82;97595.66;1725529;81;20546;-61
2021/03/01 01:48:04;;;;;;;;;;;;;;;3.41;70.78;97600.78;1718359;81;20535;-60
2021/03/01 01:50:31;;;;;;;;;;;;;;;3.37;70.81;97599.20;1739023;81;20234;-61
2021/03/01 01:53:00;;;;;;;;;;;;;;;3.38;70.84;97611.57;1729949;81;20498;-60
2021/03/01 01:55:27;;;;;;;;;;;;;;;3.44;70.85;97608.41;1730223;81;21222;-60
2021/03/01 01:57:55;;;;;;;;;;;;;;;3.49;70.81;97618.56;1734673;81;20496;-61
2021/03/01 02:02:59;;;;;;;;;;;;;;;3.50;70.66;97626.64;1719314;81;20262;-60
2021/03/01 02:05:29;;;;;;;;;;;;;;;3.53;70.58;97632.98;1718923;82;20229;-62
2021/03/01 02:08:00;;;;;;;;;;;;;;;3.51;70.36;97625.77;1698715;84;21191;-60
2021/03/01 02:10:47;;;;;;;;;;;;;;;3.50;70.33;97630.48;1698957;84;20304;-60
2021/03/01 02:13:31;;;;;;;;;;;;;;;3.48;70.31;97633.09;1698792;82;20226;-60
2021/03/01 02:16:09;;;;;;;;;;;;;;;3.44;70.34;97634.06;1649529;85;20248;-60
2021/03/01 02:18:37;;;;;;;;;;;;;;;3.46;70.54;97632.30;1660484;85;20287;-60
2021/03/01 02:21:08;;;;;;;;;;;;;;;3.46;70.62;97645.58;1666496;85;20579;-62
2021/03/01 02:23:36;;;;;;;;;;;;;;;3.47;70.64;97643.39;1669340;85;20219;-63
2021/03/01 02:26:05;;;;;;;;;;;;;;;3.47;70.63;97645.95;1679465;85;20274;-60
2021/03/01 02:28:36;;;;;;;;;;;;;;;3.49;70.54;97648.07;1692898;84;20278;-64
2021/03/01 02:31:04;;;;;;;;;;;;;;;3.49;70.56;97653.20;1669215;84;20286;-61
2021/03/01 02:33:34;;;;;;;;;;;;;;;3.49;70.54;97657.05;1690123;84;21228;-61
2021/03/01 02:36:05;;;;;;;;;;;;;;;3.49;70.47;97659.62;1674600;84;20306;-61
2021/03/01 02:38:33;;;;;;;;;;;;;;;3.48;70.57;97659.20;1671782;84;20255;-62
2021/03/01 02:41:00;;;;;;;;;;;;;;;3.54;70.62;97668.04;1669858;85;20250;-62
2021/03/01 02:43:30;;;;;;;;;;;;;;;3.61;70.67;97666.16;1667873;85;20366;-62
2021/03/01 02:45:59;;;;;;;;;;;;;;;3.66;70.44;97665.14;1718557;83;21389;-61
2021/03/01 02:48:29;;;;;;;;;;;;;;;3.70;70.40;97672.35;1716977;83;20532;-62
2021/03/01 02:50:57;;;;;;;;;;;;;;;3.75;70.27;97671.79;1718703;83;20508;-61
2021/03/01 02:53:24;;;;;;;;;;;;;;;3.77;70.12;97682.85;1717749;83;20714;-61
2021/03/01 02:55:51;;;;;;;;;;;;;;;3.73;70.13;97681.67;1712702;83;20514;-62
2021/03/01 02:58:19;;;;;;;;;;;;;;;3.68;70.13;97686.92;1717595;83;21053;-61
2021/03/01 03:00:47;;;;;;;;;;;;;;;3.66;70.35;97695.95;1722267;83;20605;-61
2021/03/01 03:03:14;;;;;;;;;;;;;;;3.68;70.39;97699.76;1716485;83;20222;-62
2021/03/01 03:05:43;;;;;;;;;;;;;;;3.73;70.34;97692.78;1721570;82;20293;-61
2021/03/01 03:08:12;;;;;;;;;;;;;;;3.74;70.43;97698.78;1694384;84;20217;-61
2021/03/01 03:10:40;;;;;;;;;;;;;;;3.73;70.56;97698.36;1710211;83;21384;-63
2021/03/01 03:13:09;;;;;;;;;;;;;;;3.74;70.49;97697.49;1704221;83;20217;-62
2021/03/01 03:15:39;;;;;;;;;;;;;;;3.70;70.55;97695.45;1714294;83;20229;-61
2021/03/01 03:18:10;;;;;;;;;;;;;;;3.69;70.63;97691.19;1703731;83;20223;-60
2021/03/01 03:20:38;;;;;;;;;;;;;;;3.68;70.55;97692.06;1735288;82;20219;-60
2021/03/01 03:23:06;;;;;;;;;;;;;;;3.64;70.59;97695.59;1730301;82;21387;-62
2021/03/01 03:25:34;;;;;;;;;;;;;;;3.56;70.67;97706.05;1728791;82;20235;-60
2021/03/01 03:28:07;;;;;;;;;;;;;;;3.52;70.94;97706.15;1702079;82;20234;-63
2021/03/01 03:30:34;;;;;;;;;;;;;;;3.50;71.18;97714.75;1685288;83;20230;-62
2021/03/01 03:33:03;;;;;;;;;;;;;;;3.50;71.32;97713.89;1706225;83;20285;-62
2021/03/01 03:35:31;;;;;;;;;;;;;;;3.56;71.28;97718.05;1688351;83;21386;-62
2021/03/01 03:38:05;;;;;;;;;;;;;;;3.59;71.14;97717.52;1733484;82;20275;-63
2021/03/01 03:40:32;;;;;;;;;;;;;;;3.60;71.11;97708.95;1726144;82;20284;-64
2021/03/01 03:43:01;;;;;;;;;;;;;;;3.60;70.94;97715.37;1739303;82;20226;-64
2021/03/01 03:45:28;;;;;;;;;;;;;;;3.57;71.00;97710.31;1717074;81;20245;-60
2021/03/01 03:47:58;;;;;;;;;;;;;;;3.57;71.07;97716.72;1733937;82;21389;-59
2021/03/01 03:50:26;;;;;;;;;;;;;;;3.62;71.00;97723.87;1680144;84;20499;-63
2021/03/01 03:52:57;;;;;;;;;;;;;;;3.72;70.93;97721.92;1701027;82;20223;-64
2021/03/01 03:55:24;;;;;;;;;;;;;;;3.81;70.85;97720.83;1728584;81;20220;-63
2021/03/01 03:58:02;;;;;;;;;;;;;;;3.82;70.72;97725.09;1737512;81;20505;-63
2021/03/01 04:00:32;;;;;;;;;;;;;;;3.81;70.76;97729.37;1699487;82;21056;-62
2021/03/01 04:03:01;;;;;;;;;;;;;;;3.80;70.77;97740.54;1727806;82;20233;-64
2021/03/01 04:05:28;;;;;;;;;;;;;;;3.82;70.79;97742.63;1722650;82;20225;-62
2021/03/01 04:07:56;;;;;;;;;;;;;;;3.85;70.71;97736.13;1712601;83;20294;-63
2021/03/01 04:10:23;;;;;;;;;;;;;;;3.90;70.51;97739.00;1720900;83;20231;-62
2021/03/01 04:12:52;;;;;;;;;;;;;;;3.89;70.35;97739.45;1690913;84;21458;-63
2021/03/01 04:15:19;;;;;;;;;;;;;;;3.83;70.51;97751.16;1720166;83;20230;-63
2021/03/01 04:17:47;;;;;;;;;;;;;;;3.82;70.61;97749.04;1728611;83;20240;-62
2021/03/01 04:20:17;;;;;;;;;;;;;;;3.83;70.76;97748.59;1713454;83;20218;-62
2021/03/01 04:22:44;;;;;;;;;;;;;;;3.84;70.77;97752.86;1728772;83;20247;-60
2021/03/01 04:25:12;;;;;;;;;;;;;;;3.82;70.87;97754.17;1723475;83;21230;-61
2021/03/01 04:27:39;;;;;;;;;;;;;;;3.84;70.86;97756.25;1719191;81;20251;-61
2021/03/01 04:30:09;;;;;;;;;;;;;;;3.83;70.74;97756.29;1724268;83;20243;-61
2021/03/01 04:32:39;;;;;;;;;;;;;;;3.83;70.69;97761.01;1714602;82;20220;-61
2021/03/01 04:35:09;;;;;;;;;;;;;;;3.84;70.69;97761.84;1717708;82;20219;-61
2021/03/01 04:37:36;;;;;;;;;;;;;;;3.85;70.67;97763.09;1714481;83;21216;-62
2021/03/01 04:40:05;;;;;;;;;;;;;;;3.85;70.50;97768.22;1719171;83;20307;-62
2021/03/01 04:42:32;;;;;;;;;;;;;;;3.85;70.53;97763.09;1728314;83;20277;-63
2021/03/01 04:45:00;;;;;;;;;;;;;;;3.93;70.53;97765.89;1726855;82;20665;-60
2021/03/01 04:47:30;;;;;;;;;;;;;;;3.97;70.42;97767.52;1728745;83;20494;-60
2021/03/01 04:49:58;;;;;;;;;;;;;;;3.97;70.31;97770.92;1727528;83;21058;-60
2021/03/01 04:52:29;;;;;;;;;;;;;;;4.01;70.21;97769.11;1697196;83;20226;-62
2021/03/01 04:54:56;;;;;;;;;;;;;;;3.97;70.07;97773.48;1681343;83;20227;-63
2021/03/01 04:57:26;;;;;;;;;;;;;;;3.90;70.12;97778.80;1719719;83;20239;-63
2021/03/01 04:59:53;;;;;;;;;;;;;;;3.86;70.24;97775.48;1721739;83;20495;-63
2021/03/01 05:02:20;;;;;;;;;;;;;;;3.85;70.34;97781.06;1709634;83;21598;-63
2021/03/01 05:04:48;;;;;;;;;;;;;;;3.90;70.34;97786.51;1720802;82;20518;-63
2021/03/01 05:07:15;;;;;;;;;;;;;;;3.93;70.42;97792.86;1732837;82;20523;-63
2021/03/01 05:09:42;;;;;;;;;;;;;;;3.95;70.39;97791.95;1707031;84;20254;-63
2021/03/01 05:12:11;;;;;;;;;;;;;;;4.00;70.28;97791.84;1751514;82;20225;-61
2021/03/01 05:14:39;;;;;;;;;;;;;;;4.03;70.08;97793.05;1732800;82;22354;-61
2021/03/01 05:17:07;;;;;;;;;;;;;;;4.07;69.93;97797.22;1738074;82;20226;-61
2021/03/01 05:19:35;;;;;;;;;;;;;;;4.06;69.87;97807.08;1728176;82;20235;-61
2021/03/01 05:22:03;;;;;;;;;;;;;;;4.05;69.87;97805.41;1736825;82;20284;-63
2021/03/01 05:24:30;;;;;;;;;;;;;;;4.07;69.78;97813.91;1731626;82;20247;-61
2021/03/01 05:26:58;;;;;;;;;;;;;;;4.06;69.74;97809.64;1735846;82;21899;-60
2021/03/01 05:29:25;;;;;;;;;;;;;;;4.04;69.65;97810.97;1729139;82;20672;-60
2021/03/01 05:31:53;;;;;;;;;;;;;;;4.01;69.58;97818.77;1737596;81;20245;-60
2021/03/01 05:34:21;;;;;;;;;;;;;;;4.00;69.75;97821.37;1736579;82;20527;-60
2021/03/01 05:36:48;;;;;;;;;;;;;;;4.02;69.85;97823.45;1739115;82;20218;-60
2021/03/01 05:39:15;;;;;;;;;;;;;;;4.06;69.80;97822.48;1739462;82;21377;-60
2021/03/01 05:41:43;;;;;;;;;;;;;;;4.11;69.67;97824.95;1732088;82;20234;-60
2021/03/01 05:44:10;;;;;;;;;;;;;;;4.09;69.55;97824.16;1714772;82;20270;-61
2021/03/01 05:46:38;;;;;;;;;;;;;;;4.08;69.56;97824.60;1678161;84;20226;-61
2021/03/01 05:49:07;;;;;;;;;;;;;;;4.08;69.48;97832.31;1720467;82;20519;-62
2021/03/01 05:51:36;;;;;;;;;;;;;;;4.07;69.42;97827.20;1734297;82;21219;-61
2021/03/01 05:54:04;;;;;;;;;;;;;;;4.08;69.43;97832.31;1734252;82;20494;-62
2021/03/01 05:56:33;;;;;;;;;;;;;;;4.06;69.37;97837.90;1732536;82;20478;-61
2021/03/01 05:59:01;;;;;;;;;;;;;;;4.05;69.53;97838.80;1739407;82;20226;-61
2021/03/01 06:01:28;;;;;;;;;;;;;;;4.05;69.45;97839.63;1730724;82;20224;-60
2021/03/01 06:03:55;;;;;;;;;;;;;;;4.05;69.43;97842.66;1727900;82;21870;-61
2021/03/01 06:06:23;;;;;;;;;;;;;;;4.03;69.56;97843.97;1714218;82;20281;-63
2021/03/01 06:08:50;;;;;;;;;;;;;;;4.05;69.68;97846.05;1740953;82;20234;-64
2021/03/01 06:11:17;;;;;;;;;;;;;;;4.10;69.71;97847.23;1732527;82;20220;-63
2021/03/01 06:13:45;;;;;;;;;;;;;;;4.11;69.74;97848.06;1741681;82;20231;-62
2021/03/01 06:16:12;;;;;;;;;;;;;;;4.10;69.65;97854.10;1738832;81;21361;-62
2021/03/01 06:18:48;;;;;;;;;;;;;;;4.03;69.90;97857.27;1736864;81;20320;-62
2021/03/01 06:21:14;;;;;;;;;;;;;;;4.02;70.06;97854.28;1738718;82;20250;-62
2021/03/01 06:23:42;;;;;;;;;;;;;;;;;;1730724;82;20728;-62
2021/03/01 06:26:22;;;;;;;;;;;;;;;4.00;70.14;97862.47;1737966;82;20218;-61
2021/03/01 06:28:53;;;;;;;;;;;;;;;3.99;70.53;97865.45;1736371;81;21208;-59
2021/03/01 06:31:48;;;;;;;;;;;;;;;4.14;70.64;97872.40;1730992;82;20222;-61
2021/03/01 06:34:20;;;;;;;;;;;;;;;4.24;70.15;97872.16;1712411;82;20593;-61
2021/03/01 06:37:08;;;;;;;;;;;;;;;4.30;69.83;97871.59;1739634;82;20222;-60
2021/03/01 06:39:39;;;;;;;;;;;;;;;4.33;69.63;97885.20;1695631;84;20221;-59
2021/03/01 06:42:21;;;;;;;;;;;;;;;4.34;69.46;97888.61;1684187;84;22287;-59
2021/03/01 06:45:02;;;;;;;;;;;;;;;4.28;69.33;97888.33;1665019;84;20706;-60
2021/03/01 06:47:52;;;;;;;;;;;;;;;4.20;69.41;97897.50;1687537;84;20231;-60
2021/03/01 06:50:32;;;;;;;;;;;;;;;4.15;69.63;97898.50;1705629;84;20221;-62
2021/03/01 06:53:15;;;;;;;;;;;;;;;4.10;69.77;97903.74;1696957;84;20249;-62
2021/03/01 06:55:57;;;;;;;;;;;;;;;4.09;69.84;97912.31;1679135;84;21209;-62
2021/03/01 06:58:27;;;;;;;;;;;;;;;4.11;70.03;97915.72;1695178;84;20681;-62
2021/03/01 07:00:59;;;;;;;;;;;;;;;4.09;70.25;97912.77;1681536;84;20213;-61
2021/03/01 07:03:29;;;;;;;;;;;;;;;4.07;70.40;97920.51;1690452;84;20504;-61
2021/03/01 07:05:57;;;;;;;;;;;;;;;4.10;70.38;97919.61;1696693;84;20343;-61
2021/03/01 07:08:35;;;;;;;;;;;;;;;4.12;70.25;97921.23;1738728;82;21441;-60
2021/03/01 07:11:04;;;;;;;;;;;;;;;4.13;70.24;97920.79;1741321;82;20214;-61
2021/03/01 07:13:32;;;;;;;;;;;;;;;4.15;70.28;97923.74;1732686;82;20329;-62
2021/03/01 07:16:00;;;;;;;;;;;;;;;4.17;70.25;97918.56;1709475;82;21083;-61
2021/03/01 07:18:29;;;;;;;;;;;;;;;4.16;70.34;97922.01;1711250;82;37579;-62
2021/03/01 07:20:58;;;;;;;;;;;;;;;4.20;70.30;97923.64;1732202;82;21232;-62
2021/03/01 07:23:25;;;;;;;;;;;;;;;4.28;70.28;97923.47;1733356;82;20672;-63
2021/03/01 07:25:53;;;;;;;;;;;;;;;4.35;70.31;97929.69;1738814;82;20297;-61
2021/03/01 07:28:22;;;;;;;;;;;;;;;4.44;70.08;97937.63;1732827;82;20262;-61
2021/03/01 07:30:50;;;;;;;;;;;;;;;4.50;69.69;97939.20;1741678;82;20225;-61
2021/03/01 07:33:17;;;;;;;;;;;;;;;4.56;69.62;97941.17;1739915;82;21185;-61
2021/03/01 07:35:45;;;;;;;;;;;;;;;4.63;69.35;97942.31;1735802;82;20600;-63
2021/03/01 07:38:12;;;;;;;;;;;;;;;4.69;69.16;97942.17;1722779;82;20306;-63
2021/03/01 07:40:40;;;;;;;;;;;;;;;4.78;68.82;97944.48;1732620;82;20243;-61
2021/03/01 07:43:09;;;;;;;;;;;;;;;4.82;68.62;97950.39;1711451;82;20687;-61
2021/03/01 07:45:36;;;;;;;;;;;;;;;4.91;68.70;97948.88;1739976;82;21386;-62
2021/03/01 07:48:15;;;;;;;;;;;;;;;5.01;68.32;97952.89;1716647;82;20221;-62
2021/03/01 07:50:45;;;;;;;;;;;;;;;5.07;68.17;97958.33;1737481;82;20321;-61
2021/03/01 07:53:46;;;;;;;;;;;;;;;5.12;68.01;97953.45;1740088;82;20560;-63
2021/03/01 07:56:32;;;;;;;;;;;;;;;5.16;67.70;97964.08;1734561;82;20229;-61
2021/03/01 07:59:02;;;;;;;;;;;;;;;5.09;67.48;97967.67;1732636;81;21117;-62
2021/03/01 08:01:29;;;;;;;;;;;;;;;4.94;67.80;97966.36;1741850;81;20980;-62
2021/03/01 08:03:57;;;;;;;;;;;;;;;4.90;68.01;97969.91;1719655;82;20222;-61
2021/03/01 08:06:27;;;;;;;;;;;;;;;4.85;68.20;97973.04;1723865;82;20290;-63
2021/03/01 08:08:54;;;;;;;;;;;;;;;4.82;68.37;97976.10;1715059;83;20503;-60
2021/03/01 08:11:44;;;;;;;;;;;;;;;4.79;68.43;97979.16;1717690;83;22219;-57
2021/03/01 08:14:13;;;;;;;;;;;;;;;4.83;68.82;97981.21;1724676;83;20227;-61
2021/03/01 08:16:40;;;;;;;;;;;;;;;4.96;68.53;97984.32;1715344;83;20235;-60
2021/03/01 08:19:08;;;;;;;;;;;;;;;5.03;68.43;97985.00;1713696;83;20231;-60
2021/03/01 08:21:48;;;;;;;;;;;;;;;5.07;68.44;97987.91;1720204;82;20228;-59
2021/03/01 08:27:30;;;;;;;;;;;;;;;5.06;68.55;97997.34;1807134;79;20478;-60
2021/03/01 08:30:21;;;;;;;;;;;;;;;5.05;68.51;97996.09;1820288;79;22120;-59
2021/03/01 08:33:10;;;;;;;;;;;;;;;4.97;68.62;98008.72;1820649;79;20239;-60
2021/03/01 08:35:41;;;;;;;;;;;;;;;4.93;68.78;98008.83;1817954;79;20192;-59
2021/03/01 08:38:10;;;;;;;;;;;;;;;4.91;69.01;98002.89;1816819;79;20240;-59
2021/03/01 08:40:51;;;;;;;;;;;;;;;4.89;69.03;98020.09;1819776;79;20410;-59
2021/03/01 08:43:35;;;;;;;;;;;;;;;4.88;69.17;98015.83;1790462;79;22294;-61
2021/03/01 08:46:06;;;;;;;;;;;;;;;4.84;69.09;98028.37;1820408;79;20216;-59
2021/03/01 08:48:38;;;;;;;;;;;;;;;4.76;69.26;98022.12;1817273;79;20207;-58
2021/03/01 08:51:06;;;;;;;;;;;;;;;4.75;69.53;98026.84;1818423;79;20231;-60
2021/03/01 08:53:34;;;;;;;;;;;;;;;4.74;69.73;98032.89;1809081;79;20217;-60
2021/03/01 08:56:01;;;;;;;;;;;;;;;4.75;69.83;98026.42;1802024;79;21694;-60
2021/03/01 08:58:35;;;;;;;;;;;;;;;4.79;69.81;98032.33;1809374;79;22065;-58
2021/03/01 09:01:05;;;;;;;;;;;;;;;4.86;69.71;98029.17;1784054;79;20227;-59
2021/03/01 09:03:34;;;;;;;;;;;;;;;4.94;69.46;98034.52;1800584;79;20209;-59
2021/03/01 09:06:08;;;;;;;;;;;;;;;5.01;69.16;98033.09;1775473;81;20225;-62
2021/03/01 09:08:42;;;;;;;;;;;;;;;5.00;70.24;98038.69;1791028;79;21191;-59
2021/03/01 09:11:31;;;;;;;;;;;;;;;5.10;69.99;98042.70;1786030;79;20210;-58
2021/03/01 09:13:59;;;;;;;;;;;;;;;5.22;69.20;98049.27;1741335;82;20519;-58
2021/03/01 09:16:28;;;;;;;;;;;;;;;5.25;68.56;98049.19;1743831;81;20870;-58
2021/03/01 09:19:04;;;;;;;;;;;;;;;5.25;68.27;98054.33;1743607;82;20245;-58
2021/03/01 09:21:36;;;;;;;;;;;;;;;5.29;68.20;98057.22;1760793;81;22087;-58
2021/03/01 09:24:04;;;;;;;;;;;;;;;5.33;68.03;98066.56;1743628;82;20220;-60
2021/03/01 09:26:37;;;;;;;;;;;;;;;5.32;68.03;98063.58;1743603;82;20228;-60
2021/03/01 09:29:19;;;;;;;;;;;;;;;5.31;68.01;98066.19;1714126;83;20247;-59
2021/03/01 09:31:53;;;;;;;;;;;;;;;5.31;68.27;98059.75;1737505;81;20268;-61
2021/03/01 09:34:24;;;;;;;;;;;;;;;5.34;68.09;98065.69;1743428;82;22018;-59
2021/03/01 09:36:53;;;;;;;;;;;;;;;5.35;68.00;98069.10;1741131;82;20233;-59
2021/03/01 09:39:23;;;;;;;;;;;;;;;5.33;67.82;98073.00;1742854;82;20235;-59
2021/03/01 09:41:50;;;;;;;;;;;;;;;5.31;67.75;98076.48;1745162;81;20491;-59
2021/03/01 09:44:30;;;;;;;;;;;;;;;5.30;67.82;98080.80;1749259;81;20230;-59
2021/03/01 09:46:57;;;;;;;;;;;;;;;5.26;67.67;98082.19;1773576;81;21205;-59
2021/03/01 09:49:26;;;;;;;;;;;;;;;5.22;67.72;98086.58;1749003;81;20220;-59
2021/03/01 09:51:53;;;;;;;;;;;;;;;5.19;67.74;98085.36;1743105;82;20237;-59
2021/03/01 09:54:23;;;;;;;;;;;;;;;5.21;67.85;98088.73;1686471;84;20227;-59
2021/03/01 09:56:54;;;;;;;;;;;;;;;5.25;67.80;98090.81;1678895;85;20223;-60
2021/03/01 09:59:42;;;;;;;;;;;;;;;5.26;67.52;98089.91;1708926;82;21366;-59
2021/03/01 10:02:17;;;;;;;;;;;;;;;5.22;67.35;98089.15;1706930;84;20249;-59
2021/03/01 10:04:45;;;;;;;;;;;;;;;5.19;67.25;98092.25;1688759;84;20184;-61
2021/03/01 10:07:22;;;;;;;;;;;;;;;5.13;67.21;98095.80;1675666;85;20244;-60
2021/03/01 10:09:52;;;;;;;;;;;;;;;5.12;67.11;98094.97;1704336;84;20237;-60
2021/03/01 10:12:20;;;;;;;;;;;;;;;5.14;67.17;98093.19;1704297;84;22364;-60
2021/03/01 10:14:48;;;;;;;;;;;;;;;5.20;67.16;98095.20;1707635;84;20527;-60
2021/03/01 10:17:19;;;;;;;;;;;;;;;5.27;67.08;98095.02;1686400;84;20494;-60
2021/03/01 10:19:47;;;;;;;;;;;;;;;5.35;66.97;98099.53;1707495;84;20226;-59
2021/03/01 10:22:14;;;;;;;;;;;;;;;5.41;66.71;98098.97;1707855;83;20223;-59
2021/03/01 10:24:44;;;;;;;;;;;;;;;5.40;66.60;98102.45;1709298;84;21262;-60
2021/03/01 10:27:12;;;;;;;;;;;;;;;5.44;66.60;98106.17;1709654;82;20895;-60
2021/03/01 10:29:40;;;;;;;;;;;;;;;5.52;66.59;98109.39;1709365;82;20246;-58
2021/03/01 10:32:20;;;;;;;;;;;;;;;5.62;66.54;98106.13;1728747;82;20224;-58
2021/03/01 10:34:48;;;;;;;;;;;;;;;5.70;66.17;98105.48;1714259;82;20230;-59
2021/03/01 10:37:17;;;;;;;;;;;;;;;5.71;65.86;98107.19;1718917;82;21289;-59
2021/03/01 10:39:47;;;;;;;;;;;;;;;5.70;65.61;98104.20;1709172;84;20227;-58
2021/03/01 10:42:22;;;;;;;;;;;;;;;5.72;65.78;98105.45;1709311;83;20232;-58
2021/03/01 10:44:57;;;;;;;;;;;;;;;5.75;65.66;98103.25;1709094;84;20226;-59
2021/03/01 10:47:26;;;;;;;;;;;;;;;5.73;65.46;98103.29;1711155;82;20219;-58
2021/03/01 10:49:55;;;;;;;;;;;;;;;5.69;65.40;98103.81;1713608;82;22111;-58
2021/03/01 10:52:24;;;;;;;;;;;;;;;5.70;65.44;98099.05;1738591;82;20220;-58
2021/03/01 10:54:56;;;;;;;;;;;;;;;5.69;65.27;98098.67;1738638;82;20213;-58
2021/03/01 10:57:23;;;;;;;;;;;;;;;5.70;65.33;98100.34;1716481;82;20222;-58
2021/03/01 10:59:52;;;;;;;;;;;;;;;5.70;65.13;98094.35;1709882;82;20232;-59
2021/03/01 11:02:20;;;;;;;;;;;;;;;5.68;65.06;98087.95;1723059;82;21170;-59
2021/03/01 11:04:48;;;;;;;;;;;;;;;5.69;64.88;98093.52;1709122;84;20219;-60
2021/03/01 11:07:16;;;;;;;;;;;;;;;5.68;65.00;98094.39;1713944;82;20217;-59
2021/03/01 11:09:44;;;;;;;;;;;;;;;5.69;64.81;98092.23;1738676;82;20492;-60
2021/03/01 11:12:12;;;;;;;;;;;;;;;5.71;64.84;98092.19;1737214;81;20220;-60
2021/03/01 11:14:39;;;;;;;;;;;;;;;5.74;64.96;98091.25;1740865;81;21222;-58
2021/03/01 11:17:08;;;;;;;;;;;;;;;5.81;64.51;98092.34;1745652;81;20219;-60
2021/03/01 11:19:37;;;;;;;;;;;;;;;5.83;64.31;98091.00;1739673;81;20267;-60
2021/03/01 11:22:04;;;;;;;;;;;;;;;5.83;64.26;98089.72;1760625;81;20219;-60
2021/03/01 11:24:32;;;;;;;;;;;;;;;5.86;64.07;98093.05;1735186;82;20230;-58
2021/03/01 11:26:59;;;;;;;;;;;;;;;5.80;64.11;98097.07;1735162;82;21394;-58
2021/03/01 11:29:26;;;;;;;;;;;;;;;5.80;64.27;98098.81;1735022;82;20277;-60
2021/03/01 11:31:53;;;;;;;;;;;;;;;5.80;64.24;98094.50;1759027;81;20216;-59
2021/03/01 11:34:21;;;;;;;;;;;;;;;5.83;64.07;98098.28;1765250;81;20517;-59
2021/03/01 11:36:49;;;;;;;;;;;;;;;5.89;63.92;98097.28;1763683;81;20220;-59
2021/03/01 11:39:16;;;;;;;;;;;;;;;5.98;63.54;98094.47;1735122;82;21219;-59
2021/03/01 11:41:43;;;;;;;;;;;;;;;6.05;63.18;98093.42;1760712;81;20270;-59
2021/03/01 11:44:11;;;;;;;;;;;;;;;6.11;63.16;98094.14;1765447;81;20224;-59
2021/03/01 11:46:38;;;;;;;;;;;;;;;6.16;63.08;98098.71;1752565;81;21845;-59
2021/03/01 11:49:06;;;;;;;;;;;;;;;6.16;62.82;98098.71;1735765;81;20274;-59
2021/03/01 11:51:34;;;;;;;;;;;;;;;6.21;62.84;98105.41;1735252;82;22176;-58
2021/03/01 11:54:02;;;;;;;;;;;;;;;6.32;62.76;98099.12;1735060;82;20218;-59
2021/03/01 11:56:29;;;;;;;;;;;;;;;6.45;62.49;98105.15;1735157;82;20219;-59
2021/03/01 11:58:57;;;;;;;;;;;;;;;6.54;61.94;98104.47;1735590;81;20290;-59
2021/03/01 12:01:25;;;;;;;;;;;;;;;6.59;61.60;98107.30;1746292;81;20248;-59
2021/03/01 12:03:52;;;;;;;;;;;;;;;6.62;61.32;98103.34;1765422;81;21155;-59
2021/03/01 12:06:20;;;;;;;;;;;;;;;6.62;61.66;98101.22;1743104;81;20787;-60
2021/03/01 12:08:47;;;;;;;;;;;;;;;6.62;61.16;98094.31;1735129;82;20251;-60
2021/03/01 12:11:14;;;;;;;;;;;;;;;6.60;60.83;98098.69;1735695;81;20516;-60
2021/03/01 12:13:42;;;;;;;;;;;;;;;6.55;61.09;98094.56;1735020;82;20231;-60
2021/03/01 12:16:09;;;;;;;;;;;;;;;6.58;61.05;98097.89;1735304;81;20989;-59
2021/03/01 12:18:36;;;;;;;;;;;;;;;6.62;61.02;98102.05;1735060;82;20282;-59
2021/03/01 12:21:04;;;;;;;;;;;;;;;6.66;60.93;98104.55;1735102;82;20239;-59
2021/03/01 12:23:32;;;;;;;;;;;;;;;6.67;60.80;98101.08;1735186;82;20227;-59
2021/03/01 12:25:59;;;;;;;;;;;;;;;6.67;60.67;98108.36;1763184;81;20882;-60
2021/03/01 12:28:28;;;;;;;;;;;;;;;6.66;60.60;98111.86;1749775;81;21212;-60
2021/03/01 12:30:55;;;;;;;;;;;;;;;6.63;60.58;98123.55;1765142;81;20284;-59
2021/03/01 12:33:24;;;;;;;;;;;;;;;6.58;60.51;98118.98;1764402;81;20223;-59
2021/03/01 12:35:51;;;;;;;;;;;;;;;6.51;60.80;98122.16;1765463;81;20220;-59
2021/03/01 12:38:19;;;;;;;;;;;;;;;6.47;60.79;98122.31;1744090;81;20494;-60
2021/03/01 12:40:46;;;;;;;;;;;;;;;6.38;60.47;98124.28;1737679;81;21216;-60
2021/03/01 12:43:14;;;;;;;;;;;;;;;6.27;60.39;98125.03;1750299;81;20224;-60
2021/03/01 12:45:41;;;;;;;;;;;;;;;6.22;60.72;98123.86;1765174;81;20228;-59
2021/03/01 12:48:09;;;;;;;;;;;;;;;6.19;60.66;98123.11;1748639;81;22065;-60
2021/03/01 12:50:37;;;;;;;;;;;;;;;6.15;60.70;98122.36;1735078;82;20299;-60
2021/03/01 12:53:04;;;;;;;;;;;;;;;6.13;60.83;98129.27;1735127;82;21472;-60
2021/03/01 12:55:31;;;;;;;;;;;;;;;6.08;61.02;98126.84;1738603;81;20230;-59
2021/03/01 12:57:58;;;;;;;;;;;;;;;6.04;61.39;98119.23;1735115;82;20559;-59
2021/03/01 13:00:25;;;;;;;;;;;;;;;5.99;61.48;98126.25;1735012;82;20230;-59
2021/03/01 13:02:57;;;;;;;;;;;;;;;5.96;61.72;98125.87;1760434;81;20499;-59
2021/03/01 13:05:25;;;;;;;;;;;;;;;5.95;61.91;98127.17;1747148;81;22283;-59
2021/03/01 13:07:52;;;;;;;;;;;;;;;5.90;61.88;98131.16;1735095;82;20240;-59
2021/03/01 13:10:20;;;;;;;;;;;;;;;5.80;62.02;98130.56;1735233;82;20214;-59
2021/03/01 13:12:47;;;;;;;;;;;;;;;5.73;62.29;98134.64;1735280;82;20246;-59
2021/03/01 13:15:14;;;;;;;;;;;;;;;5.70;62.46;98142.00;1737297;81;20314;-60
2021/03/01 13:17:41;;;;;;;;;;;;;;;5.69;62.67;98141.58;1735209;82;20664;-59